Terminal Aerodrome Forecast
Issued by NWS

Home | Current Version | Previous Version | Text Only | Print | Product List | Glossary On
Versions: 1 2 3 4 5 6 7 8 9 10 11 12 13 14 15 16 17 18 19 20 21 22 23 24 25 26 27 28 29 30 31 32
039
FTUS45 KLKN 201739
TAFWMC
TAF
KWMC 201739Z 2018/2118 18010G20KT P6SM VCSH SCT060 OVC150
     FM202100 20015G25KT P6SM -SHRA SCT025 OVC040
     FM210300 24010G20KT 5SM -RA BR BKN015 OVC025
     FM210800 28010KT 5SM -SN BR OVC015
     FM211200 31012G20KT P6SM VCSH BKN015=

USA.gov is the U.S. government's official web portal to all federal, state and local government web resources and services.